Scotch Plains, New Jersey
Current Conditions -  °F | °C
As of 7:15 PM on Wednesday 28 Jan 2015 (Local Time) from KLDJ Reporting Station
Clear Clear  
Wind Chill: 25°   Ceiling: Unl
Heat Index: 30°   Visibility: 10mi
Dew Point:   Wind: 5mph
Humidity: 39%   Direction: 320°NW
Pressure: 30.24"   Gusts: NA
Location:  40.65°N, 74.4°W
Report Text: KLDJ 290015Z AUTO 32004KT 10SM CLR M01/M13 A3024 RMK AO2 T10101134
Loading
Personal Weather Stations






























Interactive Weather Map New forecast layout! Learn more

10-Day Weather Forecast

Advertisements
Track Severe Weather on mobile